sensor_id;sensor_type;location;lat;lon;timestamp;P1;durP1;ratioP1;P2;durP2;ratioP2
47403;SDS011;33157;51.508;4.288;2022-07-19T00:01:40;8.65;;;3.53;;
47403;SDS011;33157;51.508;4.288;2022-07-19T00:06:40;8.60;;;3.08;;
47403;SDS011;33157;51.508;4.288;2022-07-19T00:11:41;11.13;;;3.30;;
47403;SDS011;33157;51.508;4.288;2022-07-19T00:16:42;9.95;;;3.22;;
47403;SDS011;33157;51.508;4.288;2022-07-19T00:21:42;8.00;;;3.10;;
47403;SDS011;33157;51.508;4.288;2022-07-19T00:26:43;7.30;;;3.10;;
47403;SDS011;33157;51.508;4.288;2022-07-19T00:31:43;5.80;;;2.90;;
47403;SDS011;33157;51.508;4.288;2022-07-19T00:36:44;8.35;;;3.15;;
47403;SDS011;33157;51.508;4.288;2022-07-19T00:41:45;6.72;;;3.15;;
47403;SDS011;33157;51.508;4.288;2022-07-19T00:46:45;8.38;;;3.67;;
47403;SDS011;33157;51.508;4.288;2022-07-19T00:51:46;8.13;;;3.35;;
47403;SDS011;33157;51.508;4.288;2022-07-19T00:56:48;8.47;;;3.17;;
47403;SDS011;33157;51.508;4.288;2022-07-19T01:01:49;8.38;;;3.42;;
47403;SDS011;33157;51.508;4.288;2022-07-19T01:06:50;8.52;;;2.92;;
47403;SDS011;33157;51.508;4.288;2022-07-19T01:11:51;8.93;;;3.55;;
47403;SDS011;33157;51.508;4.288;2022-07-19T01:16:52;8.00;;;3.55;;
47403;SDS011;33157;51.508;4.288;2022-07-19T01:21:54;7.70;;;3.13;;
47403;SDS011;33157;51.508;4.288;2022-07-19T01:26:54;6.85;;;2.70;;
47403;SDS011;33157;51.508;4.288;2022-07-19T01:31:55;6.70;;;2.58;;
47403;SDS011;33157;51.508;4.288;2022-07-19T01:36:56;7.47;;;3.17;;
47403;SDS011;33157;51.508;4.288;2022-07-19T01:41:57;5.57;;;2.75;;
47403;SDS011;33157;51.508;4.288;2022-07-19T01:46:57;6.43;;;3.20;;
47403;SDS011;33157;51.508;4.288;2022-07-19T01:51:58;5.47;;;2.70;;
47403;SDS011;33157;51.508;4.288;2022-07-19T01:56:58;8.20;;;3.00;;
47403;SDS011;33157;51.508;4.288;2022-07-19T02:01:59;6.80;;;2.85;;
47403;SDS011;33157;51.508;4.288;2022-07-19T02:07:00;6.32;;;2.80;;
47403;SDS011;33157;51.508;4.288;2022-07-19T02:12:00;8.60;;;3.20;;
47403;SDS011;33157;51.508;4.288;2022-07-19T02:17:01;7.80;;;2.95;;
47403;SDS011;33157;51.508;4.288;2022-07-19T02:22:02;6.25;;;2.83;;
47403;SDS011;33157;51.508;4.288;2022-07-19T02:27:03;4.25;;;2.45;;
47403;SDS011;33157;51.508;4.288;2022-07-19T02:32:03;5.75;;;2.85;;
47403;SDS011;33157;51.508;4.288;2022-07-19T02:37:04;7.55;;;3.28;;
47403;SDS011;33157;51.508;4.288;2022-07-19T02:42:05;7.93;;;2.97;;
47403;SDS011;33157;51.508;4.288;2022-07-19T02:47:05;6.20;;;2.47;;
47403;SDS011;33157;51.508;4.288;2022-07-19T02:52:06;7.00;;;2.80;;
47403;SDS011;33157;51.508;4.288;2022-07-19T02:57:07;6.95;;;2.92;;
47403;SDS011;33157;51.508;4.288;2022-07-19T03:02:07;8.52;;;2.38;;
47403;SDS011;33157;51.508;4.288;2022-07-19T03:07:08;7.05;;;2.78;;
47403;SDS011;33157;51.508;4.288;2022-07-19T03:12:09;9.75;;;3.38;;
47403;SDS011;33157;51.508;4.288;2022-07-19T03:17:10;8.95;;;2.92;;
47403;SDS011;33157;51.508;4.288;2022-07-19T03:22:10;7.32;;;3.00;;
47403;SDS011;33157;51.508;4.288;2022-07-19T03:27:11;6.25;;;2.80;;
47403;SDS011;33157;51.508;4.288;2022-07-19T03:32:11;6.53;;;3.13;;
47403;SDS011;33157;51.508;4.288;2022-07-19T03:37:12;10.82;;;3.00;;
47403;SDS011;33157;51.508;4.288;2022-07-19T03:42:13;8.07;;;4.10;;
47403;SDS011;33157;51.508;4.288;2022-07-19T03:47:13;10.27;;;3.45;;
47403;SDS011;33157;51.508;4.288;2022-07-19T03:52:14;7.72;;;3.58;;
47403;SDS011;33157;51.508;4.288;2022-07-19T03:57:15;5.82;;;3.45;;
47403;SDS011;33157;51.508;4.288;2022-07-19T04:02:16;5.75;;;3.47;;
47403;SDS011;33157;51.508;4.288;2022-07-19T04:07:16;8.50;;;3.10;;
47403;SDS011;33157;51.508;4.288;2022-07-19T04:12:17;9.85;;;3.70;;
47403;SDS011;33157;51.508;4.288;2022-07-19T04:17:17;9.52;;;3.30;;
47403;SDS011;33157;51.508;4.288;2022-07-19T04:22:18;8.05;;;3.40;;
47403;SDS011;33157;51.508;4.288;2022-07-19T04:27:19;7.88;;;3.22;;
47403;SDS011;33157;51.508;4.288;2022-07-19T04:32:20;9.73;;;3.65;;
47403;SDS011;33157;51.508;4.288;2022-07-19T04:37:20;6.15;;;3.50;;
47403;SDS011;33157;51.508;4.288;2022-07-19T04:42:21;6.40;;;3.60;;
47403;SDS011;33157;51.508;4.288;2022-07-19T04:47:23;10.57;;;4.10;;
47403;SDS011;33157;51.508;4.288;2022-07-19T04:52:23;9.45;;;4.38;;
47403;SDS011;33157;51.508;4.288;2022-07-19T04:57:24;10.07;;;4.10;;
47403;SDS011;33157;51.508;4.288;2022-07-19T05:02:25;7.35;;;3.90;;
47403;SDS011;33157;51.508;4.288;2022-07-19T05:07:25;10.73;;;4.60;;
47403;SDS011;33157;51.508;4.288;2022-07-19T05:12:26;9.65;;;5.15;;
47403;SDS011;33157;51.508;4.288;2022-07-19T05:17:26;12.50;;;4.70;;
47403;SDS011;33157;51.508;4.288;2022-07-19T05:22:27;11.57;;;4.78;;
47403;SDS011;33157;51.508;4.288;2022-07-19T05:27:28;11.75;;;4.10;;
47403;SDS011;33157;51.508;4.288;2022-07-19T05:32:28;12.02;;;5.32;;
47403;SDS011;33157;51.508;4.288;2022-07-19T05:37:29;8.48;;;4.25;;
47403;SDS011;33157;51.508;4.288;2022-07-19T05:42:29;8.55;;;4.65;;
47403;SDS011;33157;51.508;4.288;2022-07-19T05:47:30;11.40;;;3.95;;
47403;SDS011;33157;51.508;4.288;2022-07-19T05:52:31;10.25;;;4.25;;
47403;SDS011;33157;51.508;4.288;2022-07-19T05:57:32;14.65;;;3.65;;
47403;SDS011;33157;51.508;4.288;2022-07-19T06:02:34;18.30;;;5.05;;
47403;SDS011;33157;51.508;4.288;2022-07-19T06:07:35;9.73;;;4.15;;
47403;SDS011;33157;51.508;4.288;2022-07-19T06:12:35;6.85;;;3.50;;
47403;SDS011;33157;51.508;4.288;2022-07-19T06:17:36;12.90;;;3.50;;
47403;SDS011;33157;51.508;4.288;2022-07-19T06:22:37;14.95;;;3.67;;
47403;SDS011;33157;51.508;4.288;2022-07-19T06:27:38;7.95;;;2.60;;
47403;SDS011;33157;51.508;4.288;2022-07-19T06:32:38;7.32;;;3.20;;
47403;SDS011;33157;51.508;4.288;2022-07-19T06:37:39;7.05;;;3.35;;
47403;SDS011;33157;51.508;4.288;2022-07-19T06:42:40;8.73;;;3.05;;
47403;SDS011;33157;51.508;4.288;2022-07-19T06:47:40;6.55;;;2.63;;
47403;SDS011;33157;51.508;4.288;2022-07-19T06:52:41;5.95;;;3.00;;
47403;SDS011;33157;51.508;4.288;2022-07-19T06:57:42;10.35;;;2.30;;
47403;SDS011;33157;51.508;4.288;2022-07-19T07:02:43;8.25;;;2.83;;
47403;SDS011;33157;51.508;4.288;2022-07-19T07:07:44;11.32;;;2.70;;
47403;SDS011;33157;51.508;4.288;2022-07-19T07:12:45;6.05;;;2.40;;
47403;SDS011;33157;51.508;4.288;2022-07-19T07:17:46;9.82;;;3.03;;
47403;SDS011;33157;51.508;4.288;2022-07-19T07:22:46;5.28;;;2.35;;
47403;SDS011;33157;51.508;4.288;2022-07-19T07:27:47;8.50;;;2.27;;
47403;SDS011;33157;51.508;4.288;2022-07-19T07:32:47;5.63;;;2.23;;
47403;SDS011;33157;51.508;4.288;2022-07-19T07:37:48;4.53;;;1.70;;
47403;SDS011;33157;51.508;4.288;2022-07-19T07:42:49;7.88;;;1.98;;
47403;SDS011;33157;51.508;4.288;2022-07-19T07:47:49;13.77;;;2.30;;
47403;SDS011;33157;51.508;4.288;2022-07-19T07:52:50;11.50;;;1.88;;
47403;SDS011;33157;51.508;4.288;2022-07-19T07:57:51;6.22;;;2.22;;
47403;SDS011;33157;51.508;4.288;2022-07-19T08:02:52;5.88;;;1.70;;
47403;SDS011;33157;51.508;4.288;2022-07-19T08:07:52;7.10;;;2.00;;
47403;SDS011;33157;51.508;4.288;2022-07-19T08:12:54;7.95;;;2.67;;
47403;SDS011;33157;51.508;4.288;2022-07-19T08:17:54;5.90;;;2.55;;
47403;SDS011;33157;51.508;4.288;2022-07-19T08:22:55;10.07;;;2.58;;
47403;SDS011;33157;51.508;4.288;2022-07-19T08:27:56;11.55;;;2.30;;
47403;SDS011;33157;51.508;4.288;2022-07-19T08:32:57;8.20;;;2.47;;
47403;SDS011;33157;51.508;4.288;2022-07-19T08:37:57;8.77;;;2.50;;
47403;SDS011;33157;51.508;4.288;2022-07-19T08:42:58;12.20;;;3.28;;
47403;SDS011;33157;51.508;4.288;2022-07-19T08:47:58;10.38;;;3.03;;
47403;SDS011;33157;51.508;4.288;2022-07-19T08:52:59;12.35;;;3.20;;
47403;SDS011;33157;51.508;4.288;2022-07-19T08:58:01;13.30;;;2.88;;
47403;SDS011;33157;51.508;4.288;2022-07-19T09:03:03;7.80;;;3.10;;
47403;SDS011;33157;51.508;4.288;2022-07-19T09:08:15;10.68;;;2.95;;
47403;SDS011;33157;51.508;4.288;2022-07-19T09:13:16;8.77;;;2.70;;
47403;SDS011;33157;51.508;4.288;2022-07-19T09:18:19;11.63;;;2.28;;
47403;SDS011;33157;51.508;4.288;2022-07-19T09:23:24;7.00;;;2.30;;
47403;SDS011;33157;51.508;4.288;2022-07-19T09:28:26;12.13;;;2.42;;
47403;SDS011;33157;51.508;4.288;2022-07-19T09:33:29;6.18;;;2.28;;
47403;SDS011;33157;51.508;4.288;2022-07-19T09:38:32;6.90;;;2.90;;
47403;SDS011;33157;51.508;4.288;2022-07-19T09:49:10;6.00;;;2.40;;
47403;SDS011;33157;51.508;4.288;2022-07-19T09:54:22;10.20;;;1.80;;
47403;SDS011;33157;51.508;4.288;2022-07-19T09:59:24;5.32;;;1.83;;
47403;SDS011;33157;51.508;4.288;2022-07-19T10:04:26;7.18;;;1.98;;
47403;SDS011;33157;51.508;4.288;2022-07-19T10:09:27;5.32;;;1.98;;
47403;SDS011;33157;51.508;4.288;2022-07-19T10:14:28;4.55;;;1.70;;
47403;SDS011;33157;51.508;4.288;2022-07-19T10:24:47;8.23;;;2.08;;
47403;SDS011;33157;51.508;4.288;2022-07-19T10:40:45;9.13;;;2.20;;
47403;SDS011;33157;51.508;4.288;2022-07-19T10:50:57;6.43;;;1.93;;
47403;SDS011;33157;51.508;4.288;2022-07-19T11:01:21;4.85;;;1.95;;
47403;SDS011;33157;51.508;4.288;2022-07-19T11:06:24;2.72;;;1.52;;
47403;SDS011;33157;51.508;4.288;2022-07-19T11:11:26;6.28;;;1.73;;
47403;SDS011;33157;51.508;4.288;2022-07-19T11:16:27;4.68;;;1.65;;
47403;SDS011;33157;51.508;4.288;2022-07-19T11:21:30;3.38;;;1.45;;
47403;SDS011;33157;51.508;4.288;2022-07-19T11:26:36;7.50;;;2.45;;
47403;SDS011;33157;51.508;4.288;2022-07-19T11:31:46;7.85;;;1.65;;
47403;SDS011;33157;51.508;4.288;2022-07-19T11:36:56;7.55;;;1.42;;
47403;SDS011;33157;51.508;4.288;2022-07-19T11:41:59;6.57;;;1.80;;
47403;SDS011;33157;51.508;4.288;2022-07-19T11:47:00;5.97;;;2.00;;
47403;SDS011;33157;51.508;4.288;2022-07-19T11:52:00;4.95;;;1.33;;
47403;SDS011;33157;51.508;4.288;2022-07-19T11:57:01;3.28;;;1.40;;
47403;SDS011;33157;51.508;4.288;2022-07-19T12:02:02;7.75;;;1.70;;
47403;SDS011;33157;51.508;4.288;2022-07-19T12:07:02;3.50;;;1.45;;
47403;SDS011;33157;51.508;4.288;2022-07-19T12:12:13;5.88;;;1.30;;
47403;SDS011;33157;51.508;4.288;2022-07-19T12:17:19;4.20;;;1.67;;
47403;SDS011;33157;51.508;4.288;2022-07-19T12:27:37;6.97;;;2.42;;
47403;SDS011;33157;51.508;4.288;2022-07-19T12:32:40;6.35;;;1.70;;
47403;SDS011;33157;51.508;4.288;2022-07-19T12:37:44;6.07;;;1.52;;
47403;SDS011;33157;51.508;4.288;2022-07-19T12:43:08;5.93;;;1.80;;
47403;SDS011;33157;51.508;4.288;2022-07-19T12:48:14;11.45;;;2.72;;
47403;SDS011;33157;51.508;4.288;2022-07-19T12:53:16;4.55;;;1.75;;
47403;SDS011;33157;51.508;4.288;2022-07-19T12:58:17;6.57;;;1.88;;
47403;SDS011;33157;51.508;4.288;2022-07-19T13:03:39;10.38;;;2.20;;
47403;SDS011;33157;51.508;4.288;2022-07-19T13:08:40;6.28;;;1.98;;
47403;SDS011;33157;51.508;4.288;2022-07-19T13:13:41;7.22;;;1.80;;
47403;SDS011;33157;51.508;4.288;2022-07-19T13:18:42;9.88;;;2.03;;
47403;SDS011;33157;51.508;4.288;2022-07-19T13:23:43;5.60;;;1.50;;
47403;SDS011;33157;51.508;4.288;2022-07-19T13:28:44;5.57;;;1.73;;
47403;SDS011;33157;51.508;4.288;2022-07-19T13:33:44;7.50;;;1.80;;
47403;SDS011;33157;51.508;4.288;2022-07-19T13:38:45;5.88;;;1.85;;
47403;SDS011;33157;51.508;4.288;2022-07-19T13:43:48;4.40;;;2.00;;
47403;SDS011;33157;51.508;4.288;2022-07-19T13:48:48;4.28;;;1.60;;
47403;SDS011;33157;51.508;4.288;2022-07-19T13:53:49;6.82;;;2.17;;
47403;SDS011;33157;51.508;4.288;2022-07-19T13:58:50;6.32;;;1.88;;
47403;SDS011;33157;51.508;4.288;2022-07-19T14:03:51;6.63;;;1.73;;
47403;SDS011;33157;51.508;4.288;2022-07-19T14:08:52;9.32;;;2.25;;
47403;SDS011;33157;51.508;4.288;2022-07-19T14:13:53;5.90;;;2.10;;
47403;SDS011;33157;51.508;4.288;2022-07-19T14:18:53;5.53;;;2.13;;
47403;SDS011;33157;51.508;4.288;2022-07-19T14:23:54;5.68;;;1.80;;
47403;SDS011;33157;51.508;4.288;2022-07-19T14:28:55;4.95;;;2.05;;
47403;SDS011;33157;51.508;4.288;2022-07-19T14:33:56;7.85;;;2.00;;
47403;SDS011;33157;51.508;4.288;2022-07-19T14:38:57;5.68;;;2.10;;
47403;SDS011;33157;51.508;4.288;2022-07-19T14:43:57;7.38;;;2.00;;
47403;SDS011;33157;51.508;4.288;2022-07-19T14:48:58;6.97;;;1.92;;
47403;SDS011;33157;51.508;4.288;2022-07-19T14:53:59;7.55;;;2.85;;
47403;SDS011;33157;51.508;4.288;2022-07-19T14:59:02;5.95;;;2.20;;
47403;SDS011;33157;51.508;4.288;2022-07-19T15:04:02;3.90;;;2.00;;
47403;SDS011;33157;51.508;4.288;2022-07-19T15:09:03;7.90;;;2.30;;
47403;SDS011;33157;51.508;4.288;2022-07-19T15:14:04;6.50;;;2.63;;
47403;SDS011;33157;51.508;4.288;2022-07-19T15:19:05;7.78;;;2.30;;
47403;SDS011;33157;51.508;4.288;2022-07-19T15:24:06;6.05;;;2.22;;
47403;SDS011;33157;51.508;4.288;2022-07-19T15:29:08;4.78;;;1.65;;
47403;SDS011;33157;51.508;4.288;2022-07-19T15:34:09;8.77;;;2.67;;
47403;SDS011;33157;51.508;4.288;2022-07-19T15:39:10;7.00;;;1.80;;
47403;SDS011;33157;51.508;4.288;2022-07-19T15:44:11;6.70;;;2.00;;
47403;SDS011;33157;51.508;4.288;2022-07-19T15:49:12;5.60;;;2.00;;
47403;SDS011;33157;51.508;4.288;2022-07-19T15:54:13;5.70;;;2.10;;
47403;SDS011;33157;51.508;4.288;2022-07-19T15:59:14;7.13;;;1.98;;
47403;SDS011;33157;51.508;4.288;2022-07-19T16:04:15;5.10;;;1.88;;
47403;SDS011;33157;51.508;4.288;2022-07-19T16:09:15;5.00;;;1.83;;
47403;SDS011;33157;51.508;4.288;2022-07-19T16:14:16;6.47;;;1.50;;
47403;SDS011;33157;51.508;4.288;2022-07-19T16:19:17;6.82;;;1.63;;
47403;SDS011;33157;51.508;4.288;2022-07-19T16:24:17;3.70;;;1.60;;
47403;SDS011;33157;51.508;4.288;2022-07-19T16:29:18;6.88;;;1.90;;
47403;SDS011;33157;51.508;4.288;2022-07-19T16:34:19;5.88;;;1.88;;
47403;SDS011;33157;51.508;4.288;2022-07-19T16:39:19;5.65;;;1.88;;
47403;SDS011;33157;51.508;4.288;2022-07-19T16:44:20;5.88;;;1.92;;
47403;SDS011;33157;51.508;4.288;2022-07-19T16:49:22;8.05;;;1.85;;
47403;SDS011;33157;51.508;4.288;2022-07-19T16:54:26;6.47;;;1.88;;
47403;SDS011;33157;51.508;4.288;2022-07-19T16:59:27;6.70;;;1.60;;
47403;SDS011;33157;51.508;4.288;2022-07-19T17:04:28;8.23;;;1.85;;
47403;SDS011;33157;51.508;4.288;2022-07-19T17:09:29;7.00;;;4.47;;
47403;SDS011;33157;51.508;4.288;2022-07-19T17:14:29;9.43;;;6.75;;
47403;SDS011;33157;51.508;4.288;2022-07-19T17:19:30;5.82;;;1.90;;
47403;SDS011;33157;51.508;4.288;2022-07-19T17:24:30;6.63;;;1.98;;
47403;SDS011;33157;51.508;4.288;2022-07-19T17:29:31;9.23;;;2.15;;
47403;SDS011;33157;51.508;4.288;2022-07-19T17:34:32;5.82;;;1.70;;
47403;SDS011;33157;51.508;4.288;2022-07-19T17:39:32;5.38;;;3.10;;
47403;SDS011;33157;51.508;4.288;2022-07-19T17:44:33;4.90;;;2.30;;
47403;SDS011;33157;51.508;4.288;2022-07-19T17:49:34;4.38;;;1.65;;
47403;SDS011;33157;51.508;4.288;2022-07-19T17:54:34;5.18;;;1.80;;
47403;SDS011;33157;51.508;4.288;2022-07-19T17:59:35;6.60;;;2.72;;
47403;SDS011;33157;51.508;4.288;2022-07-19T18:04:36;7.60;;;2.88;;
47403;SDS011;33157;51.508;4.288;2022-07-19T18:09:37;8.80;;;4.50;;
47403;SDS011;33157;51.508;4.288;2022-07-19T18:14:38;5.80;;;2.38;;
47403;SDS011;33157;51.508;4.288;2022-07-19T18:19:38;7.65;;;2.53;;
47403;SDS011;33157;51.508;4.288;2022-07-19T18:24:39;7.95;;;2.63;;
47403;SDS011;33157;51.508;4.288;2022-07-19T18:29:41;9.30;;;2.50;;
47403;SDS011;33157;51.508;4.288;2022-07-19T18:34:41;8.23;;;2.92;;
47403;SDS011;33157;51.508;4.288;2022-07-19T18:39:42;9.50;;;3.28;;
47403;SDS011;33157;51.508;4.288;2022-07-19T18:44:43;10.93;;;2.97;;
47403;SDS011;33157;51.508;4.288;2022-07-19T18:49:44;11.52;;;2.67;;
47403;SDS011;33157;51.508;4.288;2022-07-19T18:54:46;7.82;;;2.55;;
47403;SDS011;33157;51.508;4.288;2022-07-19T18:59:46;8.45;;;2.80;;
47403;SDS011;33157;51.508;4.288;2022-07-19T19:04:48;10.68;;;3.05;;
47403;SDS011;33157;51.508;4.288;2022-07-19T19:09:53;10.68;;;2.67;;
47403;SDS011;33157;51.508;4.288;2022-07-19T19:14:54;11.40;;;3.88;;
47403;SDS011;33157;51.508;4.288;2022-07-19T19:24:55;9.80;;;2.30;;
47403;SDS011;33157;51.508;4.288;2022-07-19T19:34:59;7.50;;;2.60;;
47403;SDS011;33157;51.508;4.288;2022-07-19T19:40:00;6.63;;;3.05;;
47403;SDS011;33157;51.508;4.288;2022-07-19T19:45:00;6.63;;;2.80;;
47403;SDS011;33157;51.508;4.288;2022-07-19T19:55:25;7.15;;;2.70;;
47403;SDS011;33157;51.508;4.288;2022-07-19T20:00:27;9.45;;;2.60;;
47403;SDS011;33157;51.508;4.288;2022-07-19T20:05:28;10.60;;;3.10;;
47403;SDS011;33157;51.508;4.288;2022-07-19T20:10:33;13.80;;;3.17;;
47403;SDS011;33157;51.508;4.288;2022-07-19T20:15:38;11.18;;;2.72;;
47403;SDS011;33157;51.508;4.288;2022-07-19T20:20:39;12.50;;;2.80;;
47403;SDS011;33157;51.508;4.288;2022-07-19T20:25:40;4.10;;;2.40;;
47403;SDS011;33157;51.508;4.288;2022-07-19T20:30:41;8.38;;;2.70;;
47403;SDS011;33157;51.508;4.288;2022-07-19T20:35:42;9.87;;;3.00;;
47403;SDS011;33157;51.508;4.288;2022-07-19T20:40:42;8.68;;;3.17;;
47403;SDS011;33157;51.508;4.288;2022-07-19T20:45:43;20.30;;;16.37;;
47403;SDS011;33157;51.508;4.288;2022-07-19T20:50:44;28.45;;;15.38;;
47403;SDS011;33157;51.508;4.288;2022-07-19T20:55:47;12.45;;;5.45;;
47403;SDS011;33157;51.508;4.288;2022-07-19T21:00:48;9.27;;;4.00;;
47403;SDS011;33157;51.508;4.288;2022-07-19T21:06:04;9.80;;;2.97;;
47403;SDS011;33157;51.508;4.288;2022-07-19T21:11:05;11.65;;;2.92;;
47403;SDS011;33157;51.508;4.288;2022-07-19T21:21:07;9.93;;;2.90;;
47403;SDS011;33157;51.508;4.288;2022-07-19T21:26:08;11.83;;;3.37;;
47403;SDS011;33157;51.508;4.288;2022-07-19T21:31:09;5.90;;;2.50;;
47403;SDS011;33157;51.508;4.288;2022-07-19T21:36:12;8.90;;;2.88;;
47403;SDS011;33157;51.508;4.288;2022-07-19T21:41:13;10.13;;;2.40;;
47403;SDS011;33157;51.508;4.288;2022-07-19T21:46:13;12.67;;;2.47;;
47403;SDS011;33157;51.508;4.288;2022-07-19T21:51:15;8.68;;;3.13;;
47403;SDS011;33157;51.508;4.288;2022-07-19T21:56:15;10.07;;;2.40;;
47403;SDS011;33157;51.508;4.288;2022-07-19T22:01:16;7.80;;;2.97;;
47403;SDS011;33157;51.508;4.288;2022-07-19T22:06:17;11.13;;;3.10;;
47403;SDS011;33157;51.508;4.288;2022-07-19T22:11:18;11.50;;;2.90;;
47403;SDS011;33157;51.508;4.288;2022-07-19T22:16:18;7.97;;;3.00;;
47403;SDS011;33157;51.508;4.288;2022-07-19T22:21:20;14.43;;;2.95;;
47403;SDS011;33157;51.508;4.288;2022-07-19T22:26:21;8.07;;;2.60;;
47403;SDS011;33157;51.508;4.288;2022-07-19T22:31:22;11.68;;;2.95;;
47403;SDS011;33157;51.508;4.288;2022-07-19T22:36:23;5.90;;;2.60;;
47403;SDS011;33157;51.508;4.288;2022-07-19T22:41:26;6.72;;;2.55;;
47403;SDS011;33157;51.508;4.288;2022-07-19T22:46:28;7.43;;;2.80;;
47403;SDS011;33157;51.508;4.288;2022-07-19T22:51:28;7.57;;;2.90;;
47403;SDS011;33157;51.508;4.288;2022-07-19T22:56:29;5.70;;;3.00;;
47403;SDS011;33157;51.508;4.288;2022-07-19T23:01:30;9.70;;;2.80;;
47403;SDS011;33157;51.508;4.288;2022-07-19T23:06:30;6.50;;;2.93;;
47403;SDS011;33157;51.508;4.288;2022-07-19T23:11:31;6.30;;;3.27;;
47403;SDS011;33157;51.508;4.288;2022-07-19T23:16:32;7.20;;;3.43;;
47403;SDS011;33157;51.508;4.288;2022-07-19T23:21:33;8.20;;;3.73;;
47403;SDS011;33157;51.508;4.288;2022-07-19T23:26:33;13.80;;;3.80;;
47403;SDS011;33157;51.508;4.288;2022-07-19T23:31:34;4.80;;;2.43;;
47403;SDS011;33157;51.508;4.288;2022-07-19T23:36:35;5.87;;;3.20;;
47403;SDS011;33157;51.508;4.288;2022-07-19T23:41:36;5.80;;;2.70;;
47403;SDS011;33157;51.508;4.288;2022-07-19T23:46:36;9.50;;;3.20;;
47403;SDS011;33157;51.508;4.288;2022-07-19T23:51:37;7.20;;;3.13;;
47403;SDS011;33157;51.508;4.288;2022-07-19T23:56:38;13.43;;;3.77;;
